createdAt,value
2019-01-24T00:01:30.934Z,-4.60
2019-01-24T00:03:58.673Z,-4.60
2019-01-24T00:06:26.395Z,-4.60
2019-01-24T00:08:54.182Z,-4.72
2019-01-24T00:11:21.914Z,-4.66
2019-01-24T00:13:49.674Z,-4.74
2019-01-24T00:16:17.421Z,-4.64
2019-01-24T00:18:45.201Z,-4.64
2019-01-24T00:21:12.931Z,-4.66
2019-01-24T00:23:40.701Z,-4.63
2019-01-24T00:26:08.418Z,-4.63
2019-01-24T00:28:36.346Z,-4.61
2019-01-24T00:31:04.107Z,-4.69
2019-01-24T00:33:31.886Z,-4.63
2019-01-24T00:35:59.674Z,-4.69
2019-01-24T00:38:27.608Z,-4.60
2019-01-24T00:40:55.464Z,-4.68
2019-01-24T00:43:23.340Z,-4.70
2019-01-24T00:45:51.086Z,-4.65
2019-01-24T00:48:18.965Z,-4.75
2019-01-24T00:50:46.720Z,-4.78
2019-01-24T00:53:14.440Z,-4.84
2019-01-24T00:55:42.191Z,-4.86
2019-01-24T00:58:10.138Z,-4.84
2019-01-24T01:00:38.053Z,-4.82
2019-01-24T01:03:06.045Z,-4.80
2019-01-24T01:05:33.794Z,-4.79
2019-01-24T01:08:01.663Z,-4.81
2019-01-24T01:10:29.594Z,-4.79
2019-01-24T01:12:57.348Z,-4.79
2019-01-24T01:15:25.280Z,-4.79
2019-01-24T01:17:53.024Z,-4.85
2019-01-24T01:20:22.407Z,-4.90
2019-01-24T01:22:50.259Z,-4.94
2019-01-24T01:25:18.518Z,-4.88
2019-01-24T01:27:46.258Z,-4.86
2019-01-24T01:30:22.839Z,-4.92
2019-01-24T01:32:51.640Z,-4.94
2019-01-24T01:35:19.652Z,-4.86
2019-01-24T01:37:47.612Z,-4.92
2019-01-24T01:40:16.627Z,-4.90
2019-01-24T01:42:44.859Z,-4.91
2019-01-24T01:45:15.999Z,-4.86
2019-01-24T01:47:43.849Z,-4.89
2019-01-24T01:50:15.544Z,-5.03
2019-01-24T01:52:43.329Z,-5.07
2019-01-24T01:55:11.894Z,-5.10
2019-01-24T01:57:39.641Z,-5.21
2019-01-24T02:00:13.126Z,-5.14
2019-01-24T02:02:40.887Z,-5.32
2019-01-24T02:05:09.592Z,-5.12
2019-01-24T02:07:37.356Z,-4.96
2019-01-24T02:10:09.407Z,-4.85
2019-01-24T02:12:37.219Z,-4.69
2019-01-24T02:15:07.189Z,-4.45
2019-01-24T02:17:34.953Z,-4.39
2019-01-24T02:20:05.902Z,-4.30
2019-01-24T02:22:33.677Z,-4.19
2019-01-24T02:25:01.454Z,-4.14
2019-01-24T02:27:29.217Z,-3.98
2019-01-24T02:29:56.951Z,-3.94
2019-01-24T02:32:24.703Z,-3.78
2019-01-24T02:34:52.618Z,-3.62
2019-01-24T02:37:20.382Z,-3.50
2019-01-24T02:39:48.098Z,-3.47
2019-01-24T02:42:15.863Z,-3.39
2019-01-24T02:44:43.754Z,-3.29
2019-01-24T02:47:11.705Z,-3.27
2019-01-24T02:49:39.449Z,-3.20
2019-01-24T02:52:07.408Z,-3.18
2019-01-24T02:54:35.177Z,-3.18
2019-01-24T02:57:03.275Z,-3.13
2019-01-24T02:59:31.216Z,-3.13
2019-01-24T03:01:59.000Z,-3.08
2019-01-24T03:04:26.994Z,-3.01
2019-01-24T03:06:54.776Z,-3.03
2019-01-24T03:09:22.513Z,-2.89
2019-01-24T03:11:50.442Z,-3.05
2019-01-24T03:14:18.177Z,-2.99
2019-01-24T03:16:45.933Z,-2.90
2019-01-24T03:19:13.702Z,-2.85
2019-01-24T03:21:41.617Z,-2.84
2019-01-24T03:24:09.470Z,-2.80
2019-01-24T03:26:37.371Z,-2.81
2019-01-24T03:29:05.185Z,-2.77
2019-01-24T03:31:32.985Z,-2.69
2019-01-24T03:34:00.775Z,-2.82
2019-01-24T03:36:28.720Z,-2.69
2019-01-24T03:38:56.472Z,-2.70
2019-01-24T03:41:24.386Z,-2.81
2019-01-24T03:43:52.130Z,-2.84
2019-01-24T03:46:20.040Z,-2.81
2019-01-24T03:48:47.804Z,-2.85
2019-01-24T03:51:15.723Z,-2.75
2019-01-24T03:53:43.482Z,-2.74
2019-01-24T03:56:11.351Z,-2.79
2019-01-24T03:58:39.058Z,-2.76
2019-01-24T04:01:07.000Z,-2.76
2019-01-24T04:03:34.867Z,-2.75
2019-01-24T04:06:02.970Z,-2.81
2019-01-24T04:08:30.877Z,-2.72
2019-01-24T04:10:58.597Z,-2.69
2019-01-24T04:13:26.473Z,-2.71
2019-01-24T04:15:54.376Z,-2.68
2019-01-24T04:18:22.302Z,-2.74
2019-01-24T04:20:50.248Z,-2.83
2019-01-24T04:23:18.169Z,-2.74
2019-01-24T04:25:46.071Z,-2.76
2019-01-24T04:28:14.026Z,-2.63
2019-01-24T04:30:41.741Z,-2.66
2019-01-24T04:33:09.563Z,-2.69
2019-01-24T04:35:37.288Z,-2.66
2019-01-24T04:38:05.212Z,-2.72
2019-01-24T04:40:32.955Z,-2.65
2019-01-24T04:43:00.671Z,-2.51
2019-01-24T04:45:28.413Z,-2.72
2019-01-24T04:47:56.938Z,-2.80
2019-01-24T04:50:24.741Z,-2.74
2019-01-24T04:52:52.657Z,-2.66
2019-01-24T04:55:20.755Z,-2.50
2019-01-24T04:57:49.242Z,-2.58
2019-01-24T05:00:25.899Z,-2.71
2019-01-24T05:02:53.977Z,-2.53
2019-01-24T05:05:27.713Z,-2.47
2019-01-24T05:07:51.455Z,-2.53
2019-01-24T05:10:19.222Z,-2.35
2019-01-24T05:12:47.106Z,-2.35
2019-01-24T05:15:15.840Z,-2.35
2019-01-24T05:17:43.893Z,-2.47
2019-01-24T05:20:11.947Z,-2.52
2019-01-24T05:22:39.862Z,-2.46
2019-01-24T05:25:10.498Z,-2.37
2019-01-24T05:27:38.282Z,-2.35
2019-01-24T05:30:19.756Z,-2.18
2019-01-24T05:32:47.516Z,-2.13
2019-01-24T05:35:15.287Z,-2.17
2019-01-24T05:37:43.322Z,-2.19
2019-01-24T05:40:11.080Z,-2.25
2019-01-24T05:42:38.792Z,-2.26
2019-01-24T05:45:07.579Z,-2.14
2019-01-24T05:47:35.500Z,-2.21
2019-01-24T05:50:04.488Z,-2.26
2019-01-24T05:52:32.410Z,-2.34
2019-01-24T05:55:00.218Z,-2.35
2019-01-24T05:57:28.248Z,-2.16
2019-01-24T05:59:55.991Z,-2.15
2019-01-24T06:02:23.926Z,-2.23
2019-01-24T06:04:51.666Z,-2.33
2019-01-24T06:07:19.423Z,-2.26
2019-01-24T06:09:47.188Z,-2.35
2019-01-24T06:12:15.121Z,-2.19
2019-01-24T06:14:43.011Z,-2.15
2019-01-24T06:17:10.935Z,-2.14
2019-01-24T06:19:38.679Z,-2.15
2019-01-24T06:22:06.409Z,-2.06
2019-01-24T06:24:34.147Z,-2.10
2019-01-24T06:27:01.934Z,-1.98
2019-01-24T06:29:29.697Z,-2.01
2019-01-24T06:31:57.437Z,-2.11
2019-01-24T06:34:25.159Z,-2.05
2019-01-24T06:36:52.933Z,-1.96
2019-01-24T06:39:20.699Z,-2.06
2019-01-24T06:41:48.450Z,-1.92
2019-01-24T06:44:16.217Z,-1.92
2019-01-24T06:46:46.819Z,-1.99
2019-01-24T06:49:14.605Z,-2.03
2019-01-24T06:51:42.354Z,-1.96
2019-01-24T06:54:10.121Z,-1.97
2019-01-24T06:56:37.851Z,-2.04
2019-01-24T06:59:05.638Z,-2.03
2019-01-24T07:01:33.396Z,-1.93
2019-01-24T07:04:01.308Z,-1.95
2019-01-24T07:06:29.099Z,-1.83
2019-01-24T07:08:56.874Z,-1.84
2019-01-24T07:11:24.626Z,-1.76
2019-01-24T07:13:52.559Z,-1.74
2019-01-24T07:16:20.322Z,-1.70
2019-01-24T07:18:48.228Z,-1.59
2019-01-24T07:21:15.994Z,-1.71
2019-01-24T07:23:43.920Z,-1.81
2019-01-24T07:26:11.824Z,-1.80
2019-01-24T07:28:39.724Z,-1.71
2019-01-24T07:31:07.496Z,-1.57
2019-01-24T07:33:35.236Z,-1.65
2019-01-24T07:36:03.237Z,-1.51
2019-01-24T07:38:30.965Z,-1.59
2019-01-24T07:40:58.902Z,-1.63
2019-01-24T07:43:26.824Z,-1.71
2019-01-24T07:45:54.735Z,-1.67
2019-01-24T07:48:22.464Z,-1.67
2019-01-24T07:50:50.425Z,-1.53
2019-01-24T07:53:18.142Z,-1.44
2019-01-24T07:55:46.075Z,-1.46
2019-01-24T07:58:13.830Z,-1.42
2019-01-24T08:00:41.643Z,-1.42
2019-01-24T08:03:09.397Z,-1.33
2019-01-24T08:05:37.960Z,-1.41
2019-01-24T08:08:05.883Z,-1.33
2019-01-24T08:10:33.587Z,-1.30
2019-01-24T08:13:01.386Z,-1.20
2019-01-24T08:15:29.307Z,-1.17
2019-01-24T08:17:57.097Z,-1.29
2019-01-24T08:20:26.087Z,-1.30
2019-01-24T08:22:53.898Z,-1.17
2019-01-24T08:25:21.756Z,-1.26
2019-01-24T08:27:49.533Z,-1.15
2019-01-24T08:30:29.267Z,-1.20
2019-01-24T08:32:57.019Z,-1.27
2019-01-24T08:35:24.972Z,-1.29
2019-01-24T08:37:52.688Z,-1.26
2019-01-24T08:40:20.692Z,-1.29
2019-01-24T08:42:48.446Z,-1.25
2019-01-24T08:45:16.895Z,-1.19
2019-01-24T08:47:44.952Z,-1.18
2019-01-24T08:50:17.699Z,-1.25
2019-01-24T08:52:45.609Z,-1.14
2019-01-24T08:55:37.963Z,-1.03
2019-01-24T08:58:06.515Z,-1.01
2019-01-24T09:00:34.383Z,-0.95
2019-01-24T09:03:02.243Z,-0.87
2019-01-24T09:05:29.987Z,-0.86
2019-01-24T09:07:57.770Z,-0.83
2019-01-24T09:10:29.662Z,-0.84
2019-01-24T09:12:57.618Z,-0.85
2019-01-24T09:15:25.464Z,-0.78
2019-01-24T09:17:53.198Z,-0.74
2019-01-24T09:20:21.024Z,-0.68
2019-01-24T09:22:54.955Z,-0.58
2019-01-24T09:25:18.567Z,-0.63
2019-01-24T09:27:46.380Z,-0.65
2019-01-24T09:30:17.823Z,-0.78
2019-01-24T09:32:45.663Z,-0.57
2019-01-24T09:35:14.164Z,-0.46
2019-01-24T09:37:42.063Z,-0.40
2019-01-24T09:40:11.366Z,-0.43
2019-01-24T09:42:39.333Z,-0.47
2019-01-24T09:45:11.363Z,-0.49
2019-01-24T09:48:01.510Z,-0.40
2019-01-24T09:50:29.645Z,-0.63
2019-01-24T09:52:57.656Z,-0.66
2019-01-24T09:55:25.595Z,-0.41
2019-01-24T09:57:53.506Z,-0.39
2019-01-24T10:00:35.508Z,-0.34
2019-01-24T10:03:06.410Z,-0.31
2019-01-24T10:05:34.065Z,-0.27
2019-01-24T10:08:01.985Z,-0.32
2019-01-24T10:10:29.775Z,-0.17
2019-01-24T10:12:57.829Z,-0.31
2019-01-24T10:15:25.835Z,-0.17
2019-01-24T10:17:53.636Z,0.12
2019-01-24T10:20:23.335Z,0.18
2019-01-24T10:22:51.077Z,0.32
2019-01-24T10:25:22.211Z,0.22
2019-01-24T10:27:49.925Z,0.23
2019-01-24T10:30:19.757Z,-0.02
2019-01-24T10:32:47.521Z,0.19
2019-01-24T10:35:15.402Z,0.25
2019-01-24T10:37:43.408Z,0.25
2019-01-24T10:40:27.353Z,0.35
2019-01-24T10:42:55.621Z,0.48
2019-01-24T10:45:23.468Z,0.33
2019-01-24T10:47:51.693Z,0.34
2019-01-24T10:50:21.175Z,0.13
2019-01-24T10:52:49.053Z,0.18
2019-01-24T10:55:19.474Z,0.08
2019-01-24T10:57:47.464Z,0.13
2019-01-24T11:00:27.190Z,0.21
2019-01-24T11:02:54.980Z,0.17
2019-01-24T11:05:22.700Z,0.33
2019-01-24T11:07:50.554Z,0.37
2019-01-24T11:10:18.798Z,0.40
2019-01-24T11:12:47.101Z,0.03
2019-01-24T11:15:17.799Z,0.29
2019-01-24T11:17:45.589Z,0.56
2019-01-24T11:20:14.463Z,0.73
2019-01-24T11:22:42.253Z,0.98
2019-01-24T11:25:13.876Z,1.00
2019-01-24T11:27:43.242Z,0.99
2019-01-24T11:30:17.766Z,0.99
2019-01-24T11:32:45.558Z,0.87
2019-01-24T11:35:14.963Z,0.94
2019-01-24T11:37:42.766Z,0.99
2019-01-24T11:40:13.522Z,1.04
2019-01-24T11:42:41.294Z,0.92
2019-01-24T11:45:10.714Z,0.75
2019-01-24T11:47:38.552Z,0.75
2019-01-24T11:50:10.605Z,0.62
2019-01-24T11:52:38.375Z,0.56
2019-01-24T11:55:07.221Z,0.52
2019-01-24T11:57:34.984Z,0.61
2019-01-24T12:00:03.938Z,0.64
2019-01-24T12:02:31.705Z,0.52
2019-01-24T12:04:59.458Z,0.35
2019-01-24T12:07:27.186Z,0.31
2019-01-24T12:09:54.975Z,0.28
2019-01-24T12:12:22.710Z,0.17
2019-01-24T12:14:50.461Z,0.15
2019-01-24T12:17:18.193Z,0.26
2019-01-24T12:19:45.947Z,0.25
2019-01-24T12:22:13.709Z,0.38
2019-01-24T12:24:41.435Z,-0.05
2019-01-24T12:27:09.200Z,-0.17
2019-01-24T12:29:36.953Z,0.06
2019-01-24T12:32:04.721Z,-0.12
2019-01-24T12:34:32.485Z,0.06
2019-01-24T12:37:00.239Z,0.24
2019-01-24T12:39:28.017Z,0.34
2019-01-24T12:41:55.759Z,0.15
2019-01-24T12:44:23.499Z,0.11
2019-01-24T12:46:51.241Z,0.06
2019-01-24T12:49:18.992Z,0.05
2019-01-24T12:51:46.772Z,0.12
2019-01-24T12:54:14.520Z,0.08
2019-01-24T12:56:42.364Z,0.07
2019-01-24T12:59:10.133Z,0.19
2019-01-24T13:01:37.886Z,0.26
2019-01-24T13:04:05.630Z,0.25
2019-01-24T13:06:34.021Z,0.11
2019-01-24T13:09:01.901Z,0.13
2019-01-24T13:11:29.666Z,0.26
2019-01-24T13:13:57.398Z,0.23
2019-01-24T13:16:25.166Z,0.21
2019-01-24T13:18:52.936Z,0.32
2019-01-24T13:21:20.696Z,0.31
2019-01-24T13:23:48.486Z,0.31
2019-01-24T13:26:16.257Z,0.35
2019-01-24T13:28:44.015Z,0.31
2019-01-24T13:31:11.788Z,0.25
2019-01-24T13:33:39.576Z,0.26
2019-01-24T13:36:07.473Z,0.40
2019-01-24T13:38:35.226Z,0.37
2019-01-24T13:41:03.129Z,0.25
2019-01-24T13:43:30.982Z,0.22
2019-01-24T13:45:58.750Z,0.36
2019-01-24T13:48:26.505Z,0.28
2019-01-24T13:50:54.542Z,0.21
2019-01-24T13:53:22.260Z,0.23
2019-01-24T13:55:50.027Z,0.15
2019-01-24T13:58:17.818Z,0.16
2019-01-24T14:00:45.635Z,0.07
2019-01-24T14:03:56.141Z,0.09
2019-01-24T14:06:23.925Z,-0.03
2019-01-24T14:08:51.651Z,-0.06
2019-01-24T14:11:19.437Z,-0.13
2019-01-24T14:13:47.206Z,-0.18
2019-01-24T14:16:15.008Z,-0.24
2019-01-24T14:18:42.770Z,-0.26
2019-01-24T14:21:10.559Z,-0.32
2019-01-24T14:23:41.007Z,-0.42
2019-01-24T14:26:08.777Z,-0.25
2019-01-24T14:28:36.579Z,-0.31
2019-01-24T14:31:04.625Z,-0.34
2019-01-24T14:33:32.367Z,-0.38
2019-01-24T14:36:00.155Z,-0.38
2019-01-24T14:38:27.875Z,-0.42
2019-01-24T14:40:55.693Z,-0.47
2019-01-24T14:43:23.459Z,-0.40
2019-01-24T14:45:51.173Z,-0.38
2019-01-24T14:48:19.024Z,-0.46
2019-01-24T14:50:46.768Z,-0.50
2019-01-24T14:53:14.533Z,-0.54
2019-01-24T14:55:42.270Z,-0.61
2019-01-24T14:58:10.011Z,-0.67
2019-01-24T15:01:01.277Z,-0.74
2019-01-24T15:03:29.128Z,-0.72
2019-01-24T15:05:56.873Z,-0.68
2019-01-24T15:08:24.622Z,-0.61
2019-01-24T15:10:52.408Z,-0.66
2019-01-24T15:13:20.161Z,-0.76
2019-01-24T15:15:50.736Z,-0.84
2019-01-24T15:18:18.486Z,-0.92
2019-01-24T15:20:46.244Z,-0.87
2019-01-24T15:23:14.004Z,-0.87
2019-01-24T15:25:41.751Z,-0.82
2019-01-24T15:28:09.523Z,-0.93
2019-01-24T15:30:37.314Z,-0.85
2019-01-24T15:33:05.120Z,-0.91
2019-01-24T15:35:32.972Z,-0.93
2019-01-24T15:38:00.748Z,-0.91
2019-01-24T15:40:29.732Z,-0.98
2019-01-24T15:42:57.806Z,-0.87
2019-01-24T15:45:25.548Z,-0.97
2019-01-24T15:47:53.622Z,-0.95
2019-01-24T15:50:21.813Z,-0.91
2019-01-24T15:52:50.270Z,-0.96
2019-01-24T15:55:18.152Z,-0.97
2019-01-24T15:57:45.957Z,-0.91
2019-01-24T16:00:23.766Z,-1.05
2019-01-24T16:02:51.627Z,-1.07
2019-01-24T16:05:19.406Z,-1.09
2019-01-24T16:07:47.281Z,-1.00
2019-01-24T16:10:16.473Z,-1.14
2019-01-24T16:12:44.232Z,-0.99
2019-01-24T16:15:16.133Z,-1.20
2019-01-24T16:17:43.954Z,-1.22
2019-01-24T16:20:15.905Z,-1.20
2019-01-24T16:22:43.699Z,-1.26
2019-01-24T16:25:12.953Z,-1.25
2019-01-24T16:27:40.819Z,-1.23
2019-01-24T16:30:14.158Z,-1.31
2019-01-24T16:32:41.933Z,-1.25
2019-01-24T16:35:10.501Z,-1.33
2019-01-24T16:37:38.387Z,-1.36
2019-01-24T16:40:09.699Z,-1.36
2019-01-24T16:42:37.458Z,-1.34
2019-01-24T16:45:08.973Z,-1.28
2019-01-24T16:47:36.715Z,-1.33
2019-01-24T16:50:06.833Z,-1.29
2019-01-24T16:52:34.669Z,-1.28
2019-01-24T16:55:02.866Z,-1.32
2019-01-24T16:57:30.620Z,-1.17
2019-01-24T16:59:58.369Z,-1.41
2019-01-24T17:02:26.143Z,-1.45
2019-01-24T17:04:53.918Z,-1.43
2019-01-24T17:07:21.796Z,-1.42
2019-01-24T17:09:49.526Z,-1.47
2019-01-24T17:12:17.422Z,-1.55
2019-01-24T17:14:45.174Z,-1.57
2019-01-24T17:17:13.436Z,-1.64
2019-01-24T17:19:41.257Z,-1.62
2019-01-24T17:22:09.060Z,-1.46
2019-01-24T17:24:36.803Z,-1.57
2019-01-24T17:27:04.624Z,-1.51
2019-01-24T17:29:32.388Z,-1.56
2019-01-24T17:32:00.185Z,-1.49
2019-01-24T17:34:27.914Z,-1.49
2019-01-24T17:36:55.710Z,-1.41
2019-01-24T17:39:23.456Z,-1.49
2019-01-24T17:41:51.236Z,-1.60
2019-01-24T17:44:18.974Z,-1.68
2019-01-24T17:46:46.739Z,-1.72
2019-01-24T17:49:14.508Z,-1.63
2019-01-24T17:51:42.268Z,-1.67
2019-01-24T17:54:10.523Z,-1.60
2019-01-24T17:56:38.288Z,-1.54
2019-01-24T17:59:06.060Z,-1.48
2019-01-24T18:01:33.922Z,-1.47
2019-01-24T18:04:01.696Z,-1.54
2019-01-24T18:06:29.475Z,-1.51
2019-01-24T18:08:57.247Z,-1.54
2019-01-24T18:11:25.021Z,-1.49
2019-01-24T18:13:52.891Z,-1.57
2019-01-24T18:16:20.682Z,-1.70
2019-01-24T18:18:48.493Z,-1.70
2019-01-24T18:21:16.276Z,-1.75
2019-01-24T18:23:44.061Z,-1.71
2019-01-24T18:26:11.827Z,-1.78
2019-01-24T18:28:39.599Z,-1.79
2019-01-24T18:31:07.377Z,-1.78
2019-01-24T18:33:35.179Z,-1.63
2019-01-24T18:36:03.250Z,-1.59
2019-01-24T18:38:31.047Z,-1.61
2019-01-24T18:40:58.920Z,-1.49
2019-01-24T18:43:27.470Z,-1.48
2019-01-24T18:45:58.459Z,-1.61
2019-01-24T18:48:26.255Z,-1.63
2019-01-24T18:50:53.990Z,-1.65
2019-01-24T18:53:21.771Z,-1.62
2019-01-24T18:55:49.554Z,-1.74
2019-01-24T18:58:17.322Z,-1.85
2019-01-24T19:00:46.343Z,-1.78
2019-01-24T19:03:14.359Z,-1.74
2019-01-24T19:05:43.044Z,-1.58
2019-01-24T19:08:11.077Z,-1.67
2019-01-24T19:10:38.855Z,-1.78
2019-01-24T19:13:08.168Z,-1.77
2019-01-24T19:15:36.309Z,-1.71
2019-01-24T19:18:07.757Z,-1.69
2019-01-24T19:20:35.546Z,-1.68
2019-01-24T19:23:03.602Z,-1.79
2019-01-24T19:25:31.412Z,-1.64
2019-01-24T19:27:59.206Z,-1.59
2019-01-24T19:30:29.795Z,-1.70
2019-01-24T19:32:57.638Z,-1.69
2019-01-24T19:35:26.092Z,-1.76
2019-01-24T19:37:53.892Z,-1.73
2019-01-24T19:40:22.573Z,-1.76
2019-01-24T19:42:50.455Z,-1.65
2019-01-24T19:45:20.410Z,-1.72
2019-01-24T19:47:48.413Z,-1.74
2019-01-24T19:50:19.438Z,-1.66
2019-01-24T19:52:47.228Z,-1.59
2019-01-24T19:55:16.786Z,-1.80
2019-01-24T19:57:44.630Z,-1.59
2019-01-24T20:00:19.233Z,-1.59
2019-01-24T20:02:47.228Z,-1.55
2019-01-24T20:05:16.410Z,-1.62
2019-01-24T20:07:44.448Z,-1.52
2019-01-24T20:10:15.943Z,-1.52
2019-01-24T20:12:43.970Z,-1.53
2019-01-24T20:15:15.174Z,-1.59
2019-01-24T20:17:42.923Z,-1.61
2019-01-24T20:20:12.612Z,-1.59
2019-01-24T20:22:40.502Z,-1.57
2019-01-24T20:25:11.567Z,-1.61
2019-01-24T20:27:39.445Z,-1.66
2019-01-24T20:30:14.639Z,-1.68
2019-01-24T20:32:42.400Z,-1.60
2019-01-24T20:35:15.051Z,-1.68
2019-01-24T20:37:43.946Z,-1.71
2019-01-24T20:40:12.235Z,-1.78
2019-01-24T20:42:40.138Z,-1.68
2019-01-24T20:45:08.345Z,-1.72
2019-01-24T20:47:36.149Z,-1.66
2019-01-24T20:50:04.723Z,-1.65
2019-01-24T20:52:32.487Z,-1.59
2019-01-24T20:55:00.344Z,-1.65
2019-01-24T20:57:28.173Z,-1.64
2019-01-24T20:59:55.966Z,-1.67
2019-01-24T21:02:23.709Z,-1.63
2019-01-24T21:04:51.515Z,-1.68
2019-01-24T21:07:19.286Z,-1.65
2019-01-24T21:09:47.066Z,-1.57
2019-01-24T21:12:14.837Z,-1.62
2019-01-24T21:14:42.616Z,-1.62
2019-01-24T21:17:10.402Z,-1.70
2019-01-24T21:19:38.208Z,-1.68
2019-01-24T21:22:06.007Z,-1.71
2019-01-24T21:24:33.820Z,-1.70
2019-01-24T21:27:01.570Z,-1.76
2019-01-24T21:29:29.355Z,-1.67
2019-01-24T21:31:57.082Z,-1.66
2019-01-24T21:34:24.877Z,-1.61
2019-01-24T21:36:53.069Z,-1.68
2019-01-24T21:39:22.376Z,-1.62
2019-01-24T21:41:50.288Z,-1.63
2019-01-24T21:44:18.065Z,-1.62
2019-01-24T21:46:45.803Z,-1.57
2019-01-24T21:49:13.609Z,-1.60
2019-01-24T21:51:41.378Z,-1.58
2019-01-24T21:54:09.122Z,-1.55
2019-01-24T21:56:36.901Z,-1.58
2019-01-24T21:59:04.681Z,-1.52
2019-01-24T22:01:32.500Z,-1.55
2019-01-24T22:04:00.261Z,-1.49
2019-01-24T22:06:28.057Z,-1.51
2019-01-24T22:08:55.819Z,-1.62
2019-01-24T22:11:23.564Z,-1.71
2019-01-24T22:13:51.303Z,-1.75
2019-01-24T22:16:19.073Z,-1.87
2019-01-24T22:18:46.819Z,-1.75
2019-01-24T22:21:14.631Z,-1.87
2019-01-24T22:23:42.387Z,-1.88
2019-01-24T22:26:10.195Z,-1.84
2019-01-24T22:28:40.005Z,-1.83
2019-01-24T22:31:07.878Z,-1.85
2019-01-24T22:33:35.633Z,-1.87
2019-01-24T22:36:03.844Z,-1.84
2019-01-24T22:38:31.569Z,-1.86
2019-01-24T22:40:59.357Z,-1.87
2019-01-24T22:43:27.113Z,-1.85
2019-01-24T22:45:54.862Z,-1.84
2019-01-24T22:48:22.652Z,-1.90
2019-01-24T22:50:50.409Z,-1.92
2019-01-24T22:53:18.159Z,-1.82
2019-01-24T22:55:45.934Z,-1.85
2019-01-24T22:58:13.686Z,-1.89
2019-01-24T23:02:03.435Z,-1.97
2019-01-24T23:04:31.194Z,-1.91
2019-01-24T23:06:58.945Z,-1.88
2019-01-24T23:09:26.693Z,-1.90
2019-01-24T23:11:54.629Z,-1.98
2019-01-24T23:14:22.353Z,-1.93
2019-01-24T23:16:50.207Z,-1.96
2019-01-24T23:19:18.129Z,-1.86
2019-01-24T23:21:46.042Z,-1.78
2019-01-24T23:24:13.792Z,-1.72
2019-01-24T23:26:41.562Z,-1.76
2019-01-24T23:29:09.290Z,-1.81
2019-01-24T23:31:37.044Z,-1.80
2019-01-24T23:34:05.360Z,-1.73
2019-01-24T23:36:33.122Z,-1.68
2019-01-24T23:39:00.884Z,-1.69
2019-01-24T23:41:28.668Z,-1.79
2019-01-24T23:43:56.618Z,-1.76
2019-01-24T23:46:24.366Z,-1.82
2019-01-24T23:48:52.252Z,-1.79
2019-01-24T23:51:20.013Z,-1.89
2019-01-24T23:53:47.942Z,-2.02
2019-01-24T23:56:15.706Z,-2.03
2019-01-24T23:58:43.438Z,-2.03
